Nantong, China
Current Conditions -  °F | °C
As of 8:30 PM on Tuesday 21 Oct 2014 (Local Time) from ZSSS Reporting Station
Broken Clouds Broken Clouds  
Wind Chill: 66°   Ceiling: 1600
Heat Index: 66°   Visibility: 6mi
Dew Point: 59°   Wind: 18mph
Humidity: 78%   Direction: 360°N
Pressure: 30.06"   Gusts: NA
Location:  32.02°N, 120.82°E
Report Text: ZSSS 211230Z 36008MPS 9999 BKN016 19/15 Q1018 NOSIG
Loading
Personal Weather Stations






























Interactive Weather Map
Tropical Storm Tracking
New forecast layout! Learn more

10-Day Weather Forecast

Advertisements
Track Severe Weather on mobile